Time;durP1;ratioP1;P1;durP2;ratioP2;P2;SDS_P1;SDS_P2;PMS_P1;PMS_P2;Temp;Humidity;BMP_temperature;BMP_pressure;BME280_temperature;BME280_humidity;BME280_pressure;Samples;Min_cycle;Max_cycle;Signal;HPM_P1;HPM_P2
2022/06/02 00:04:19;;;;;;;0.77;0.70;;;;;;;17.04;72.23;101586.72;20878329;28;20106;-76
2022/06/02 00:14:26;;;;;;;1.00;0.85;;;;;;;17.02;72.02;101584.16;20802058;28;20059;-76
2022/06/02 00:24:53;;;;;;;0.80;0.80;;;;;;;17.02;71.92;101577.91;20784452;28;20060;-76
2022/06/02 00:35:16;;;;;;;0.60;0.60;;;;;;;17.01;71.61;101593.19;20815397;28;20061;-76
2022/06/02 00:45:20;;;;;;;0.70;0.65;;;;;;;17.00;71.61;101606.75;20798253;28;20041;-76
2022/06/02 01:06:18;;;;;;;0.80;0.80;;;;;;;16.98;71.21;101619.47;20792116;28;20045;-76
2022/06/02 01:16:36;;;;;;;0.70;0.70;;;;;;;16.95;70.86;101624.06;20799716;28;20053;-76
2022/06/02 01:26:56;;;;;;;0.70;0.70;;;;;;;16.96;70.74;101633.84;20796498;28;20042;-76
2022/06/02 01:37:07;;;;;;;0.60;0.60;;;;;;;16.95;70.53;101637.50;20797676;28;20497;-76
2022/06/02 01:47:21;;;;;;;1.02;0.73;;;;;;;16.93;70.43;101638.59;20879274;28;20090;-76
2022/06/02 01:57:34;;;;;;;0.80;0.68;;;;;;;16.94;70.28;101634.91;20798924;28;20050;-76
2022/06/02 02:07:41;;;;;;;0.70;0.70;;;;;;;16.93;69.92;101635.88;20884378;28;20045;-76
2022/06/02 02:18:14;;;;;;;0.70;0.70;;;;;;;16.92;69.77;101642.25;20877031;28;20115;-76
2022/06/02 02:28:41;;;;;;;0.60;0.57;;;;;;;16.92;69.53;101644.94;20892631;28;20045;-76
2022/06/02 02:38:53;;;;;;;0.70;0.70;;;;;;;16.85;69.35;101641.84;20860742;28;20064;-76
2022/06/02 02:49:12;;;;;;;0.57;0.57;;;;;;;16.90;69.09;101654.94;20892722;28;20053;-76
2022/06/02 02:59:53;;;;;;;0.70;0.70;;;;;;;16.89;68.86;101648.72;20883867;28;20045;-76
2022/06/02 03:10:26;;;;;;;0.70;0.70;;;;;;;16.79;68.79;101631.50;20773250;28;20045;-76
2022/06/02 03:20:39;;;;;;;0.73;0.70;;;;;;;16.88;68.49;101643.44;20886895;28;20413;-76
2022/06/02 03:30:53;;;;;;;0.60;0.60;;;;;;;16.82;68.27;101642.06;20812325;28;20044;-75
2022/06/02 03:41:04;;;;;;;0.73;0.63;;;;;;;16.86;68.09;101654.31;20819661;28;20052;-75
2022/06/02 03:51:09;;;;;;;0.52;0.52;;;;;;;16.85;68.22;101662.50;20820909;28;20049;-76
2022/06/02 04:01:13;;;;;;;0.93;0.60;;;;;;;16.61;67.89;101622.97;20870638;28;20452;-76
2022/06/02 04:13:37;;;;;;;1.35;0.60;;;;;;;16.84;67.76;101680.47;20883923;28;20041;-75
2022/06/02 04:22:00;;;;;;;1.50;0.75;;;;;;;16.83;67.69;101692.19;20801716;28;20052;-75
2022/06/02 04:32:12;;;;;;;0.73;0.70;;;;;;;16.84;67.58;101714.56;20800203;28;20042;-76
2022/06/02 04:42:35;;;;;;;0.65;0.65;;;;;;;16.83;67.55;101708.34;20818100;28;20071;-75
2022/06/02 04:52:49;;;;;;;0.75;0.63;;;;;;;16.84;67.27;101719.94;20798595;28;20049;-75
2022/06/02 05:02:56;;;;;;;0.45;0.45;;;;;;;16.84;67.11;101731.56;20791759;28;20084;-76
2022/06/02 05:13:30;;;;;;;0.60;0.60;;;;;;;16.87;67.17;101739.41;20803515;28;20055;-75
2022/06/02 05:23:41;;;;;;;0.70;0.70;;;;;;;16.89;67.04;101734.78;20758409;28;20050;-74
2022/06/02 05:34:05;;;;;;;0.70;0.70;;;;;;;16.63;67.53;101712.44;20829037;28;20055;-74
2022/06/02 05:44:57;;;;;;;1.00;0.77;;;;;;;16.86;68.07;101759.22;20873644;28;20242;-74
2022/06/02 05:55:19;;;;;;;0.65;0.65;;;;;;;16.86;68.53;101772.66;20824734;28;20956;-74
2022/06/02 06:05:37;;;;;;;2.92;0.80;;;;;;;16.86;69.15;101782.53;20801245;28;20497;-75
2022/06/02 06:16:03;;;;;;;2.42;0.82;;;;;;;16.86;69.74;101790.59;20883780;28;20049;-75
2022/06/02 06:26:42;;;;;;;2.25;0.70;;;;;;;16.85;70.17;101792.47;20819274;28;20045;-75
2022/06/02 06:37:00;;;;;;;3.40;0.80;;;;;;;16.86;70.76;101801.38;20756103;28;20060;-75
2022/06/02 06:47:02;;;;;;;2.58;0.80;;;;;;;16.85;71.01;101803.22;20806468;28;20058;-74
2022/06/02 06:57:11;;;;;;;2.33;0.68;;;;;;;16.83;71.41;101805.16;20889282;28;20045;-74
2022/06/02 07:07:19;;;;;;;1.20;0.73;;;;;;;16.80;71.36;101803.53;20824213;28;20053;-74
2022/06/02 07:17:25;;;;;;;2.17;0.73;;;;;;;16.93;71.31;101816.97;20876622;28;20136;-75
2022/06/02 07:27:55;;;;;;;1.30;0.60;;;;;;;17.05;71.36;101825.19;20811383;28;20053;-77
2022/06/02 07:38:35;;;;;;;0.77;0.60;;;;;;;17.17;70.51;101834.22;20801873;28;20049;-75
2022/06/02 07:48:46;;;;;;;1.20;0.60;;;;;;;17.23;69.99;101837.34;20771610;28;20100;-75
2022/06/02 07:58:53;;;;;;;1.95;0.60;;;;;;;17.27;69.39;101855.97;20800167;28;20049;-76
2022/06/02 08:09:21;;;;;;;1.63;0.77;;;;;;;17.27;68.93;101856.81;20850511;28;20525;-76
2022/06/02 08:20:01;;;;;;;0.40;0.40;;;;;;;17.30;68.70;101858.44;20850347;28;20102;-77
2022/06/02 08:30:02;;;;;;;0.52;0.52;;;;;;;17.31;68.33;101863.69;20808170;28;20049;-76
2022/06/02 08:40:49;;;;;;;0.70;0.60;;;;;;;17.29;68.17;101871.00;20846272;28;20049;-75
2022/06/02 08:50:57;;;;;;;1.38;0.73;;;;;;;17.29;68.06;101876.41;20769746;28;20069;-75
2022/06/02 09:01:35;;;;;;;0.50;0.50;;;;;;;17.26;67.88;101884.69;20842026;28;20053;-75
2022/06/02 09:12:16;;;;;;;1.05;0.60;;;;;;;17.24;67.90;101900.97;20813458;28;20037;-75
2022/06/02 09:22:41;;;;;;;0.75;0.60;;;;;;;17.23;67.89;101904.63;20838631;28;20072;-75
2022/06/02 09:43:44;;;;;;;0.50;0.47;;;;;;;17.22;67.64;101915.47;20792663;28;20132;-76
2022/06/02 09:54:01;;;;;;;0.50;0.50;;;;;;;17.22;67.73;101926.25;20773587;28;20041;-76
2022/06/02 10:04:15;;;;;;;1.55;0.60;;;;;;;17.19;67.65;101940.75;20771082;28;20046;-76
2022/06/02 10:14:40;;;;;;;1.00;0.60;;;;;;;17.20;67.69;101936.25;20759841;28;20127;-75
2022/06/02 10:24:51;;;;;;;0.93;0.50;;;;;;;17.18;67.58;101922.91;20744126;28;20045;-75
2022/06/02 10:35:15;;;;;;;0.75;0.55;;;;;;;17.19;67.60;101929.16;20793525;28;20616;-75
2022/06/02 10:45:38;;;;;;;1.25;0.60;;;;;;;17.18;67.57;101928.28;20783571;28;22555;-75
2022/06/02 10:55:56;;;;;;;1.50;0.40;;;;;;;17.10;67.54;101911.81;20778677;28;20045;-76
2022/06/02 11:06:22;;;;;;;0.40;0.40;;;;;;;17.18;67.34;101914.81;20829534;28;20045;-76
2022/06/02 11:16:26;;;;;;;1.88;0.60;;;;;;;17.18;67.30;101917.50;20810564;28;20053;-75
2022/06/02 11:26:47;;;;;;;;;;;;;;;17.18;67.30;101901.38;20854048;28;20067;-76
2022/06/02 11:37:04;;;;;;;0.60;0.60;;;;;;;17.19;67.19;101905.78;20851479;28;19996;-75
2022/06/02 11:47:20;;;;;;;0.50;0.50;;;;;;;17.20;67.29;101899.44;20790343;28;20045;-75
2022/06/02 11:57:44;;;;;;;0.57;0.57;;;;;;;17.20;67.12;101882.44;20772771;28;20049;-74
2022/06/02 12:08:21;;;;;;;0.47;0.47;;;;;;;17.21;67.25;101890.38;20768071;28;20131;-74
2022/06/02 12:18:27;;;;;;;0.70;0.50;;;;;;;17.20;67.29;101885.97;20716451;28;20041;-75
2022/06/02 12:28:37;;;;;;;0.50;0.50;;;;;;;17.19;67.27;101878.88;20794504;28;20046;-75
2022/06/02 12:38:53;;;;;;;0.40;0.40;;;;;;;17.19;67.39;101881.56;20786515;28;20042;-75
2022/06/02 12:49:04;;;;;;;0.68;0.60;;;;;;;17.19;67.25;101876.19;20818554;28;20060;-75
2022/06/02 12:59:30;;;;;;;0.47;0.47;;;;;;;17.19;67.19;101884.25;20793266;28;20060;-75
2022/06/02 13:09:50;;;;;;;0.50;0.50;;;;;;;17.19;67.24;101878.88;20770455;28;20049;-76
2022/06/02 13:20:15;;;;;;;0.68;0.43;;;;;;;17.18;67.26;101868.22;20767171;28;20049;-75
2022/06/02 13:30:45;;;;;;;1.77;0.60;;;;;;;17.19;67.16;101864.56;20839322;28;20190;-77
2022/06/02 13:41:21;;;;;;;0.77;0.60;;;;;;;17.19;67.01;101867.25;20842954;28;20535;-75
2022/06/02 13:51:54;;;;;;;0.60;0.60;;;;;;;16.99;67.00;101836.38;20839434;28;20049;-76
2022/06/02 14:01:59;;;;;;;1.65;0.95;;;;;;;17.19;67.47;101853.81;20889859;28;20413;-76
2022/06/02 14:12:01;;;;;;;;;;;;;;;17.19;68.28;101857.34;20806914;28;20656;-75
2022/06/02 14:22:10;;;;;;;0.70;0.70;;;;;;;17.17;67.85;101851.22;20819161;28;19947;-76
2022/06/02 14:32:23;;;;;;;1.63;1.10;;;;;;;17.17;68.16;101851.22;20824069;28;20061;-76
2022/06/02 14:43:03;;;;;;;0.77;0.60;;;;;;;17.18;68.08;101847.56;20803943;28;20057;-76
2022/06/02 14:53:22;;;;;;;2.42;0.60;;;;;;;17.19;68.33;101849.25;20809595;28;20045;-76
2022/06/02 15:03:51;;;;;;;0.90;0.60;;;;;;;17.20;68.36;101856.38;20808636;28;20064;-76
2022/06/02 15:14:03;;;;;;;1.20;0.70;;;;;;;17.19;68.31;101849.25;20806169;28;20387;-76
2022/06/02 15:24:25;;;;;;;2.85;0.90;;;;;;;17.19;68.33;101851.13;20789914;28;20041;-75
2022/06/02 15:34:48;;;;;;;0.50;0.50;;;;;;;17.09;68.25;101829.38;20803914;28;20053;-76
2022/06/02 15:45:07;;;;;;;1.20;0.60;;;;;;;17.19;68.47;101856.50;20803184;28;20041;-76
2022/06/02 15:55:30;;;;;;;0.73;0.73;;;;;;;17.20;68.23;101845.59;20803180;28;20095;-76
2022/06/02 16:05:32;;;;;;;0.63;0.63;;;;;;;17.21;68.36;101839.25;20803769;28;20506;-76
2022/06/02 16:15:51;;;;;;;1.10;0.60;;;;;;;17.21;68.39;101830.34;20803101;28;20042;-76
2022/06/02 16:26:02;;;;;;;0.93;0.80;;;;;;;17.19;68.38;101827.75;20801391;28;20107;-76
2022/06/02 16:36:25;;;;;;;1.85;0.73;;;;;;;17.19;68.34;101827.75;20798765;28;20056;-76
2022/06/02 16:46:51;;;;;;;0.73;0.70;;;;;;;16.98;68.31;101783.53;20881791;28;20505;-76
2022/06/02 16:56:58;;;;;;;0.82;0.70;;;;;;;17.19;68.35;101825.06;20881987;28;20132;-76
2022/06/02 17:07:27;;;;;;;1.00;0.73;;;;;;;17.20;68.62;101824.09;20881400;28;20045;-76
2022/06/02 17:18:12;;;;;;;1.20;0.80;;;;;;;17.21;68.60;101819.56;20879643;28;20051;-76
2022/06/02 17:28:35;;;;;;;0.88;0.80;;;;;;;17.24;68.52;101817.53;20873471;28;20055;-76
2022/06/02 17:38:37;;;;;;;0.70;0.70;;;;;;;17.26;68.54;101830.88;20888188;28;20048;-76
2022/06/02 17:48:41;;;;;;;0.75;0.68;;;;;;;17.25;68.56;101826.47;20897107;28;20505;-76
2022/06/02 17:58:46;;;;;;;0.77;0.77;;;;;;;17.23;68.91;101834.66;20895491;28;20128;-76
2022/06/02 18:08:54;;;;;;;0.83;0.83;;;;;;;17.23;68.54;101849.94;20895257;28;20107;-76
2022/06/02 18:19:23;;;;;;;1.15;0.93;;;;;;;17.06;68.76;101805.38;20894960;28;20044;-76
2022/06/02 18:29:29;;;;;;;0.80;0.73;;;;;;;17.21;68.81;101835.72;20893180;28;20064;-76
2022/06/02 18:39:59;;;;;;;1.40;0.70;;;;;;;17.20;68.69;101851.00;20891378;28;20493;-76
2022/06/02 18:50:13;;;;;;;0.70;0.70;;;;;;;17.20;68.77;101848.31;20891074;28;20061;-76
2022/06/02 19:00:38;;;;;;;1.73;0.85;;;;;;;17.19;68.67;101860.03;20891257;28;20501;-76
2022/06/02 19:13:45;;;;;;;1.33;0.90;;;;;;;17.19;68.65;101853.81;20888461;28;20055;-76
2022/06/02 19:21:53;;;;;;;1.58;0.93;;;;;;;17.17;68.64;101888.88;20888046;28;20583;-76
2022/06/02 19:32:03;;;;;;;1.55;0.90;;;;;;;17.17;68.61;101888.88;20827983;28;20053;-77
2022/06/02 19:42:42;;;;;;;1.45;0.70;;;;;;;17.17;68.66;101896.09;20887989;28;20049;-76
2022/06/02 19:52:59;;;;;;;1.17;0.73;;;;;;;17.16;68.56;101902.47;20805110;28;20236;-76
2022/06/02 20:03:04;;;;;;;0.70;0.70;;;;;;;17.15;68.62;101912.34;20816357;28;20046;-76
2022/06/02 20:13:27;;;;;;;1.23;0.90;;;;;;;17.15;68.41;101916.88;20872886;28;20048;-76
2022/06/02 20:24:06;;;;;;;0.80;0.80;;;;;;;17.14;68.41;101923.22;20867730;28;20151;-76
2022/06/02 20:34:40;;;;;;;0.85;0.77;;;;;;;17.12;68.23;101915.25;20822527;28;20045;-76
2022/06/02 20:44:57;;;;;;;0.70;0.70;;;;;;;17.12;68.12;101917.09;20882929;28;20049;-76
2022/06/02 20:55:11;;;;;;;1.38;0.90;;;;;;;17.12;67.66;101919.78;20882802;28;20106;-76
2022/06/02 21:05:41;;;;;;;0.63;0.60;;;;;;;17.10;67.46;101918.06;20879709;28;20079;-76
2022/06/02 21:15:54;;;;;;;0.75;0.65;;;;;;;17.10;67.41;101909.13;20868327;28;20053;-76
2022/06/02 21:26:20;;;;;;;1.10;0.60;;;;;;;17.07;67.32;101899.44;20878141;28;20061;-76
2022/06/02 21:36:23;;;;;;;0.70;0.70;;;;;;;17.08;67.24;101905.66;20834972;28;20075;-76
2022/06/02 21:46:40;;;;;;;2.42;0.90;;;;;;;17.06;67.17;101902.22;20852417;28;20057;-75
2022/06/02 21:57:03;;;;;;;0.63;0.63;;;;;;;17.06;67.02;101905.78;20802534;28;20437;-74
2022/06/02 22:07:21;;;;;;;0.70;0.70;;;;;;;17.05;66.96;101900.50;20791864;28;20051;-74
2022/06/02 22:17:31;;;;;;;1.63;0.88;;;;;;;17.05;67.02;101900.50;20790502;28;20410;-74
2022/06/02 22:27:45;;;;;;;1.42;0.88;;;;;;;17.05;66.80;101900.50;20794343;28;20041;-74
2022/06/02 22:38:01;;;;;;;0.77;0.73;;;;;;;17.01;66.88;101905.22;20804632;28;20456;-74
2022/06/02 22:48:06;;;;;;;1.20;0.80;;;;;;;17.02;66.89;101896.22;20805333;28;20516;-75
2022/06/02 22:58:26;;;;;;;1.10;0.90;;;;;;;17.02;66.69;101895.34;20791785;28;20045;-74
2022/06/02 23:08:55;;;;;;;0.70;0.70;;;;;;;17.02;66.72;101903.41;20799424;28;20102;-74
2022/06/02 23:19:15;;;;;;;2.05;0.80;;;;;;;17.01;66.79;101901.69;20827737;28;20409;-74
2022/06/02 23:29:19;;;;;;;1.02;0.82;;;;;;;17.01;66.47;101901.69;20787648;28;20077;-74
2022/06/02 23:39:47;;;;;;;1.65;1.10;;;;;;;17.00;66.59;101902.66;20792561;28;20045;-74
2022/06/02 23:50:04;;;;;;;0.77;0.77;;;;;;;16.99;66.58;101906.31;20801261;28;20053;-74
